Time;durP1;ratioP1;P1;durP2;ratioP2;P2;SDS_P1;SDS_P2;PMS_P1;PMS_P2;Temp;Humidity;BMP_temperature;BMP_pressure;BME280_temperature;BME280_humidity;BME280_pressure;Samples;Min_cycle;Max_cycle;Signal;HPM_P1;HPM_P2
2023/07/08 00:00:37;;;;;;;;;;;26.10;47.60;;;;;;4983811;28;19989;-82
2023/07/08 00:03:04;;;;;;;;;;;26.10;47.80;;;;;;4995044;28;19933;-82
2023/07/08 00:05:30;;;;;;;;;;;26.00;47.80;;;;;;4999732;28;19937;-82
2023/07/08 00:07:57;;;;;;;;;;;25.90;47.70;;;;;;5001041;28;20370;-82
2023/07/08 00:10:25;;;;;;;;;;;25.90;47.80;;;;;;4998678;28;19933;-82
2023/07/08 00:12:52;;;;;;;;;;;25.90;47.80;;;;;;4999399;28;19945;-82
2023/07/08 00:15:21;;;;;;;;;;;25.80;47.80;;;;;;4997516;28;19988;-82
2023/07/08 00:17:49;;;;;;;;;;;25.80;48.00;;;;;;4981552;28;19934;-82
2023/07/08 00:20:18;;;;;;;;;;;25.80;48.10;;;;;;4977322;28;19930;-82
2023/07/08 00:22:46;;;;;;;;;;;25.70;48.20;;;;;;4984294;28;20485;-82
2023/07/08 00:25:13;;;;;;;;;;;25.70;48.30;;;;;;4981304;28;20070;-82
2023/07/08 00:27:40;;;;;;;;;;;25.60;48.30;;;;;;4986077;28;20417;-82
2023/07/08 00:30:27;;;;;;;;;;;25.60;48.50;;;;;;4985057;28;20286;-81
2023/07/08 00:32:56;;;;;;;;;;;25.50;48.40;;;;;;4980860;28;19936;-82
2023/07/08 00:35:23;;;;;;;;;;;25.50;48.60;;;;;;4985723;28;19927;-81
2023/07/08 00:37:53;;;;;;;;;;;25.50;48.60;;;;;;4984081;28;19938;-82
2023/07/08 00:40:21;;;;;;;;;;;25.40;48.60;;;;;;4983564;28;19977;-82
2023/07/08 00:42:48;;;;;;;;;;;25.40;48.80;;;;;;4983376;28;19930;-82
2023/07/08 00:45:36;;;;;;;;;;;25.40;48.70;;;;;;4981117;28;19926;-82
2023/07/08 00:48:08;;;;;;;;;;;25.30;48.80;;;;;;4982293;28;19925;-82
2023/07/08 00:50:35;;;;;;;;;;;25.30;48.80;;;;;;4982026;28;19978;-82
2023/07/08 00:53:22;;;;;;;;;;;25.30;49.00;;;;;;4984661;28;19940;-81
2023/07/08 00:55:49;;;;;;;;;;;25.20;49.00;;;;;;4979638;28;20390;-82
2023/07/08 00:58:17;;;;;;;;;;;25.20;49.10;;;;;;4976972;28;19941;-82
2023/07/08 01:00:44;;;;;;;;;;;25.20;49.00;;;;;;4983610;28;19968;-81
2023/07/08 01:03:12;;;;;;;;;;;25.10;49.10;;;;;;4986840;28;20393;-82
2023/07/08 01:05:39;;;;;;;;;;;25.10;49.20;;;;;;4981523;28;19934;-82
2023/07/08 01:08:06;;;;;;;;;;;25.10;49.20;;;;;;4982495;28;19981;-81
2023/07/08 01:10:38;;;;;;;;;;;25.00;49.20;;;;;;4981626;28;20494;-81
2023/07/08 01:13:07;;;;;;;;;;;25.00;49.40;;;;;;4981869;28;19930;-82
2023/07/08 01:15:38;;;;;;;;;;;25.00;49.40;;;;;;4981342;28;19964;-82
2023/07/08 01:18:04;;;;;;;;;;;24.90;49.60;;;;;;4984377;28;20568;-82
2023/07/08 01:20:33;;;;;;;;;;;24.90;49.70;;;;;;4981549;28;20560;-81
2023/07/08 01:23:01;;;;;;;;;;;24.80;49.70;;;;;;4980446;28;20105;-81
2023/07/08 01:25:28;;;;;;;;;;;24.80;49.80;;;;;;4984876;28;19937;-82
2023/07/08 01:27:56;;;;;;;;;;;24.80;49.90;;;;;;4982892;28;19940;-82
2023/07/08 01:30:23;;;;;;;;;;;24.80;50.00;;;;;;4984997;28;19929;-82
2023/07/08 01:32:51;;;;;;;;;;;24.70;50.10;;;;;;4983035;28;19983;-82
2023/07/08 01:35:17;;;;;;;;;;;24.70;50.10;;;;;;4983253;28;19937;-82
2023/07/08 01:37:47;;;;;;;;;;;24.60;50.10;;;;;;4982340;28;19929;-81
2023/07/08 01:40:16;;;;;;;;;;;24.60;50.20;;;;;;4981097;28;19940;-81
2023/07/08 01:42:42;;;;;;;;;;;24.50;50.10;;;;;;4982992;28;19937;-82
2023/07/08 01:45:11;;;;;;;;;;;24.50;50.30;;;;;;4981756;28;20410;-82
2023/07/08 01:47:38;;;;;;;;;;;24.50;50.30;;;;;;4983213;28;19929;-81
2023/07/08 01:50:04;;;;;;;;;;;24.40;50.30;;;;;;4982787;28;20653;-81
2023/07/08 01:52:31;;;;;;;;;;;24.40;50.40;;;;;;4983842;28;19974;-81
2023/07/08 01:54:57;;;;;;;;;;;24.30;50.50;;;;;;4979829;28;20339;-82
2023/07/08 01:57:25;;;;;;;;;;;24.30;50.60;;;;;;4978796;28;19930;-82
2023/07/08 01:59:52;;;;;;;;;;;24.30;50.70;;;;;;4978866;28;20008;-82
2023/07/08 02:02:18;;;;;;;;;;;24.20;50.70;;;;;;4998245;28;19929;-82
2023/07/08 02:04:45;;;;;;;;;;;24.20;50.70;;;;;;5000523;28;20514;-82
2023/07/08 02:07:11;;;;;;;;;;;24.20;50.80;;;;;;5001595;28;19937;-82
2023/07/08 02:09:38;;;;;;;;;;;24.20;50.70;;;;;;5001511;28;19945;-81
2023/07/08 02:12:05;;;;;;;;;;;24.10;50.80;;;;;;5000446;28;19937;-81
2023/07/08 02:14:33;;;;;;;;;;;24.10;50.90;;;;;;4996734;28;19937;-82
2023/07/08 02:16:59;;;;;;;;;;;24.00;51.00;;;;;;4998069;28;19936;-82
2023/07/08 02:19:27;;;;;;;;;;;24.00;51.10;;;;;;4999607;28;20652;-81
2023/07/08 02:21:54;;;;;;;;;;;24.00;51.10;;;;;;5001070;28;20715;-81
2023/07/08 02:24:22;;;;;;;;;;;24.00;51.10;;;;;;5003673;28;19936;-81
2023/07/08 02:26:48;;;;;;;;;;;23.90;51.00;;;;;;4999304;28;19936;-81
2023/07/08 02:29:15;;;;;;;;;;;23.90;51.30;;;;;;5000622;28;20784;-82
2023/07/08 02:31:43;;;;;;;;;;;23.80;51.30;;;;;;5000263;28;19992;-82
2023/07/08 02:34:09;;;;;;;;;;;23.80;51.20;;;;;;4997795;28;20329;-82
2023/07/08 02:36:36;;;;;;;;;;;23.80;51.20;;;;;;4998348;28;19929;-82
2023/07/08 02:39:03;;;;;;;;;;;23.80;51.40;;;;;;4999825;28;19965;-81
2023/07/08 02:41:29;;;;;;;;;;;23.70;51.30;;;;;;4999821;28;20016;-82
2023/07/08 02:43:56;;;;;;;;;;;23.70;51.30;;;;;;4999874;28;19936;-81
2023/07/08 02:46:23;;;;;;;;;;;23.70;51.30;;;;;;4986613;28;19930;-81
2023/07/08 02:48:50;;;;;;;;;;;23.70;51.30;;;;;;4981860;28;19929;-81
2023/07/08 02:51:17;;;;;;;;;;;23.60;51.30;;;;;;4981933;28;19941;-81
2023/07/08 02:53:44;;;;;;;;;;;23.60;51.30;;;;;;4978780;28;19934;-81
2023/07/08 02:56:10;;;;;;;;;;;23.60;51.30;;;;;;4980794;28;19930;-81
2023/07/08 02:58:37;;;;;;;;;;;23.50;51.40;;;;;;4979741;28;19934;-81
2023/07/08 03:01:03;;;;;;;;;;;23.50;51.40;;;;;;4991698;28;19937;-81
2023/07/08 03:03:30;;;;;;;;;;;23.50;51.50;;;;;;5000321;28;19933;-81
2023/07/08 03:05:59;;;;;;;;;;;23.40;51.70;;;;;;5004288;28;19935;-81
2023/07/08 03:08:26;;;;;;;;;;;23.40;51.60;;;;;;5000665;28;20048;-81
2023/07/08 03:10:57;;;;;;;;;;;23.40;51.70;;;;;;4999935;28;19933;-81
2023/07/08 03:13:23;;;;;;;;;;;23.40;51.80;;;;;;5002429;28;19945;-81
2023/07/08 03:15:50;;;;;;;;;;;23.30;51.80;;;;;;4990448;28;19936;-81
2023/07/08 03:18:17;;;;;;;;;;;23.30;51.90;;;;;;4979762;28;20072;-81
2023/07/08 03:20:44;;;;;;;;;;;23.30;51.90;;;;;;4981334;28;19937;-81
2023/07/08 03:23:12;;;;;;;;;;;23.20;51.90;;;;;;4982148;28;19936;-81
2023/07/08 03:25:39;;;;;;;;;;;23.20;52.00;;;;;;4980338;28;19934;-81
2023/07/08 03:28:07;;;;;;;;;;;23.10;52.00;;;;;;4978095;28;19930;-81
2023/07/08 03:30:34;;;;;;;;;;;23.10;52.00;;;;;;4978890;28;19929;-81
2023/07/08 03:33:01;;;;;;;;;;;23.10;52.10;;;;;;5002202;28;20779;-81
2023/07/08 03:35:27;;;;;;;;;;;23.00;51.90;;;;;;5000743;28;20420;-81
2023/07/08 03:37:54;;;;;;;;;;;23.00;52.00;;;;;;5000515;28;19929;-81
2023/07/08 03:40:22;;;;;;;;;;;23.00;52.00;;;;;;5001168;28;21147;-81
2023/07/08 03:42:48;;;;;;;;;;;22.90;52.00;;;;;;5001533;28;19940;-82
2023/07/08 03:45:15;;;;;;;;;;;22.90;52.10;;;;;;4997659;28;19932;-81
2023/07/08 03:47:41;;;;;;;;;;;22.90;52.20;;;;;;4998228;28;19936;-81
2023/07/08 03:50:14;;;;;;;;;;;22.90;52.20;;;;;;5002472;28;19929;-81
2023/07/08 03:52:40;;;;;;;;;;;22.90;52.30;;;;;;5001484;28;19938;-81
2023/07/08 03:55:09;;;;;;;;;;;22.80;52.30;;;;;;4999312;28;19937;-81
2023/07/08 03:57:37;;;;;;;;;;;22.80;52.30;;;;;;4998228;28;20685;-81
2023/07/08 04:00:03;;;;;;;;;;;22.80;52.40;;;;;;4996639;28;19941;-82
2023/07/08 04:02:30;;;;;;;;;;;22.70;52.40;;;;;;4977540;28;19929;-82
2023/07/08 04:04:57;;;;;;;;;;;22.70;52.50;;;;;;4982413;28;19934;-82
2023/07/08 04:07:23;;;;;;;;;;;22.70;52.50;;;;;;4978775;28;19934;-81
2023/07/08 04:09:50;;;;;;;;;;;22.70;52.60;;;;;;4979168;28;19938;-81
2023/07/08 04:12:16;;;;;;;;;;;22.60;52.70;;;;;;4978756;28;19941;-82
2023/07/08 04:14:44;;;;;;;;;;;22.60;52.80;;;;;;4976634;28;19941;-82
2023/07/08 04:17:11;;;;;;;;;;;22.60;52.80;;;;;;4983135;28;19985;-82
2023/07/08 04:19:39;;;;;;;;;;;22.60;52.90;;;;;;4980226;28;19930;-81
2023/07/08 04:22:06;;;;;;;;;;;22.60;53.00;;;;;;4980139;28;19934;-82
2023/07/08 04:24:32;;;;;;;;;;;22.60;53.10;;;;;;4980804;28;19929;-82
2023/07/08 04:26:59;;;;;;;;;;;22.50;53.10;;;;;;4978639;28;19933;-82
2023/07/08 04:29:26;;;;;;;;;;;22.50;53.20;;;;;;4976366;28;19953;-81
2023/07/08 04:31:54;;;;;;;;;;;22.40;53.30;;;;;;4982335;28;20457;-82
2023/07/08 04:34:20;;;;;;;;;;;22.50;53.40;;;;;;4983031;28;20403;-82
2023/07/08 04:36:47;;;;;;;;;;;22.40;53.40;;;;;;4981603;28;19937;-82
2023/07/08 04:39:14;;;;;;;;;;;22.40;53.40;;;;;;4979041;28;19933;-82
2023/07/08 04:41:43;;;;;;;;;;;22.40;53.50;;;;;;4978160;28;20014;-82
2023/07/08 04:44:10;;;;;;;;;;;22.40;53.60;;;;;;4978761;28;20031;-82
2023/07/08 04:46:38;;;;;;;;;;;22.40;53.70;;;;;;4980741;28;20475;-82
2023/07/08 04:49:07;;;;;;;;;;;22.30;53.70;;;;;;4981217;28;19934;-83
2023/07/08 04:51:33;;;;;;;;;;;22.30;53.80;;;;;;4978529;28;19961;-82
2023/07/08 04:54:00;;;;;;;;;;;22.30;53.80;;;;;;4980952;28;20732;-82
2023/07/08 04:56:35;;;;;;;;;;;22.30;53.80;;;;;;4982384;28;20469;-82
2023/07/08 04:59:02;;;;;;;;;;;22.30;53.90;;;;;;4980544;28;19988;-82
2023/07/08 05:01:29;;;;;;;;;;;22.30;54.00;;;;;;4974503;28;20602;-82
2023/07/08 05:03:55;;;;;;;;;;;22.20;54.00;;;;;;4977978;28;20644;-83
2023/07/08 05:06:23;;;;;;;;;;;22.20;54.10;;;;;;4979120;28;19934;-82
2023/07/08 05:08:50;;;;;;;;;;;22.20;54.20;;;;;;4978705;28;19941;-82
2023/07/08 05:11:16;;;;;;;;;;;22.20;54.20;;;;;;4979175;28;19934;-82
2023/07/08 05:13:43;;;;;;;;;;;22.20;54.20;;;;;;4979633;28;19930;-83
2023/07/08 05:16:09;;;;;;;;;;;22.20;54.30;;;;;;4979155;28;19952;-82
2023/07/08 05:18:36;;;;;;;;;;;22.10;54.20;;;;;;4985634;28;20080;-82
2023/07/08 05:21:02;;;;;;;;;;;22.10;54.20;;;;;;4986794;28;20406;-81
2023/07/08 05:23:30;;;;;;;;;;;22.20;54.30;;;;;;4984284;28;20402;-81
2023/07/08 05:26:00;;;;;;;;;;;22.20;54.40;;;;;;4984332;28;20594;-81
2023/07/08 05:28:26;;;;;;;;;;;22.10;54.30;;;;;;4986065;28;20326;-82
2023/07/08 05:30:53;;;;;;;;;;;22.10;54.40;;;;;;4977659;28;19940;-81
2023/07/08 05:33:20;;;;;;;;;;;22.10;54.40;;;;;;4984202;28;19929;-80
2023/07/08 05:35:46;;;;;;;;;;;22.10;54.40;;;;;;4979742;28;20043;-78
2023/07/08 05:38:13;;;;;;;;;;;22.20;54.50;;;;;;4987693;28;20348;-79
2023/07/08 05:40:41;;;;;;;;;;;22.10;55.00;;;;;;4982444;28;19930;-78
2023/07/08 05:43:07;;;;;;;;;;;22.10;54.40;;;;;;4983442;28;19930;-78
2023/07/08 05:45:35;;;;;;;;;;;22.10;54.40;;;;;;4984259;28;19930;-78
2023/07/08 05:48:02;;;;;;;;;;;22.10;54.40;;;;;;4982322;28;19930;-79
2023/07/08 05:50:28;;;;;;;;;;;22.10;54.40;;;;;;4983717;28;19937;-78
2023/07/08 05:52:55;;;;;;;;;;;22.10;54.40;;;;;;4984210;28;19940;-78
2023/07/08 05:55:21;;;;;;;;;;;22.10;54.40;;;;;;4984176;28;19933;-78
2023/07/08 05:57:49;;;;;;;;;;;22.10;54.40;;;;;;4983520;28;20287;-78
2023/07/08 06:00:16;;;;;;;;;;;22.10;54.40;;;;;;4981563;28;20018;-78
2023/07/08 06:02:42;;;;;;;;;;;22.10;54.40;;;;;;4982568;28;19941;-78
2023/07/08 06:05:09;;;;;;;;;;;22.10;54.50;;;;;;4976529;28;19952;-78
2023/07/08 06:07:35;;;;;;;;;;;22.10;54.40;;;;;;4980615;28;19937;-78
2023/07/08 06:10:02;;;;;;;;;;;22.10;54.30;;;;;;4982306;28;19936;-78
2023/07/08 06:12:30;;;;;;;;;;;22.20;54.30;;;;;;4985703;28;19930;-78
2023/07/08 06:14:58;;;;;;;;;;;22.20;54.20;;;;;;4982803;28;19930;-78
2023/07/08 06:17:24;;;;;;;;;;;22.20;54.20;;;;;;4981496;28;19933;-77
2023/07/08 06:19:51;;;;;;;;;;;22.20;54.20;;;;;;4983403;28;20402;-77
2023/07/08 06:22:17;;;;;;;;;;;22.30;54.10;;;;;;4978354;28;19933;-77
2023/07/08 06:24:44;;;;;;;;;;;22.30;54.00;;;;;;4982534;28;20666;-77
2023/07/08 06:27:10;;;;;;;;;;;22.30;54.10;;;;;;4981225;28;19933;-77
2023/07/08 06:29:37;;;;;;;;;;;22.30;54.00;;;;;;4980008;28;19929;-77
2023/07/08 06:32:05;;;;;;;;;;;22.30;53.90;;;;;;4980186;28;20643;-77
2023/07/08 06:34:32;;;;;;;;;;;22.40;53.90;;;;;;4980015;28;19940;-78
2023/07/08 06:36:59;;;;;;;;;;;22.40;53.90;;;;;;4980809;28;19930;-77
2023/07/08 06:39:25;;;;;;;;;;;22.40;54.10;;;;;;4981104;28;19934;-78
2023/07/08 06:41:52;;;;;;;;;;;22.40;54.00;;;;;;4979671;28;19941;-78
2023/07/08 06:44:18;;;;;;;;;;;22.50;54.00;;;;;;4980345;28;19936;-77
2023/07/08 06:46:45;;;;;;;;;;;22.50;54.00;;;;;;4978103;28;19929;-77
2023/07/08 06:49:13;;;;;;;;;;;22.50;54.00;;;;;;4978389;28;19937;-78
2023/07/08 06:51:40;;;;;;;;;;;22.50;54.00;;;;;;4979340;28;20428;-77
2023/07/08 06:54:11;;;;;;;;;;;22.50;54.10;;;;;;4977512;28;20033;-78
2023/07/08 06:56:37;;;;;;;;;;;22.60;54.20;;;;;;4976565;28;19930;-79
2023/07/08 06:59:04;;;;;;;;;;;22.50;54.20;;;;;;4983853;28;19934;-79
2023/07/08 07:01:31;;;;;;;;;;;22.60;54.20;;;;;;4976057;28;21822;-79
2023/07/08 07:03:57;;;;;;;;;;;22.60;54.20;;;;;;4986922;28;19941;-79
2023/07/08 07:06:25;;;;;;;;;;;22.60;54.30;;;;;;4983071;28;19929;-79
2023/07/08 07:08:52;;;;;;;;;;;22.60;54.40;;;;;;4984945;28;20379;-79
2023/07/08 07:11:19;;;;;;;;;;;22.60;54.50;;;;;;4982942;28;19930;-79
2023/07/08 07:13:46;;;;;;;;;;;22.70;54.80;;;;;;4983924;28;19937;-78
2023/07/08 07:16:12;;;;;;;;;;;22.70;55.00;;;;;;4978012;28;19934;-78
2023/07/08 07:18:39;;;;;;;;;;;22.70;55.10;;;;;;4976399;28;19937;-79
2023/07/08 07:21:05;;;;;;;;;;;22.80;55.20;;;;;;4980247;28;19937;-79
2023/07/08 07:23:33;;;;;;;;;;;22.80;55.20;;;;;;4982860;28;19934;-81
2023/07/08 07:26:00;;;;;;;;;;;22.80;55.50;;;;;;4985544;28;19937;-79
2023/07/08 07:28:26;;;;;;;;;;;22.90;55.70;;;;;;4987211;28;20563;-79
2023/07/08 07:30:56;;;;;;;;;;;22.90;55.80;;;;;;4982953;28;20447;-78
2023/07/08 07:33:23;;;;;;;;;;;22.90;55.90;;;;;;4981824;28;20563;-79
2023/07/08 07:35:49;;;;;;;;;;;22.90;56.10;;;;;;4983643;28;19929;-80
2023/07/08 07:38:17;;;;;;;;;;;23.00;56.20;;;;;;4985828;28;19930;-80
2023/07/08 07:40:45;;;;;;;;;;;23.00;56.40;;;;;;4981534;28;19933;-81
2023/07/08 07:43:12;;;;;;;;;;;23.10;56.50;;;;;;4985477;28;19934;-81
2023/07/08 07:45:38;;;;;;;;;;;23.10;56.90;;;;;;4980074;28;20362;-81
2023/07/08 07:48:05;;;;;;;;;;;23.10;57.00;;;;;;4980953;28;19930;-82
2023/07/08 07:50:32;;;;;;;;;;;23.10;56.90;;;;;;4986405;28;20478;-82
2023/07/08 07:52:59;;;;;;;;;;;23.20;57.00;;;;;;4982683;28;19961;-82
2023/07/08 07:55:25;;;;;;;;;;;23.20;56.80;;;;;;4986474;28;19930;-79
2023/07/08 07:57:53;;;;;;;;;;;23.20;57.10;;;;;;4983431;28;19980;-84
2023/07/08 08:00:20;;;;;;;;;;;23.30;57.30;;;;;;4977131;28;19929;-85
2023/07/08 08:02:47;;;;;;;;;;;23.30;57.50;;;;;;4979481;28;19941;-83
2023/07/08 08:05:13;;;;;;;;;;;23.30;57.20;;;;;;4980311;28;19937;-83
2023/07/08 08:07:40;;;;;;;;;;;23.30;57.40;;;;;;4978320;28;19942;-83
2023/07/08 08:10:07;;;;;;;;;;;23.30;57.60;;;;;;4980179;28;19992;-83
2023/07/08 08:12:33;;;;;;;;;;;23.30;57.90;;;;;;4979167;28;19930;-83
2023/07/08 08:15:01;;;;;;;;;;;23.40;57.80;;;;;;4980033;28;19933;-83
2023/07/08 08:17:28;;;;;;;;;;;23.40;57.80;;;;;;4994835;28;19956;-82
2023/07/08 08:19:54;;;;;;;;;;;23.40;57.90;;;;;;4998544;28;19930;-83
2023/07/08 08:22:22;;;;;;;;;;;23.40;58.20;;;;;;4995489;28;19934;-83
2023/07/08 08:24:48;;;;;;;;;;;23.40;57.80;;;;;;5000620;28;20066;-83
2023/07/08 08:27:15;;;;;;;;;;;23.40;57.70;;;;;;4997417;28;19941;-84
2023/07/08 08:29:41;;;;;;;;;;;23.40;57.80;;;;;;4998231;28;19936;-83
2023/07/08 08:32:09;;;;;;;;;;;23.50;57.80;;;;;;4979637;28;19930;-83
2023/07/08 08:34:36;;;;;;;;;;;23.50;58.00;;;;;;4977043;28;19934;-83
2023/07/08 08:37:03;;;;;;;;;;;23.50;57.70;;;;;;4971261;28;19929;-83
2023/07/08 08:39:30;;;;;;;;;;;23.60;57.80;;;;;;4974425;28;20871;-83
2023/07/08 08:41:56;;;;;;;;;;;23.70;57.90;;;;;;4978486;28;19937;-84
2023/07/08 08:44:27;;;;;;;;;;;23.60;57.70;;;;;;4980138;28;19940;-82
2023/07/08 08:46:57;;;;;;;;;;;23.70;57.80;;;;;;4975228;28;19941;-83
2023/07/08 08:49:28;;;;;;;;;;;23.70;57.70;;;;;;4979953;28;19930;-82
2023/07/08 08:51:54;;;;;;;;;;;23.80;57.80;;;;;;4979877;28;20386;-82
2023/07/08 08:54:21;;;;;;;;;;;23.80;57.80;;;;;;4979902;28;19930;-83
2023/07/08 08:56:52;;;;;;;;;;;23.80;57.70;;;;;;4983232;28;20342;-82
2023/07/08 08:59:23;;;;;;;;;;;23.90;57.40;;;;;;4985691;28;19946;-83
2023/07/08 09:01:51;;;;;;;;;;;24.00;57.30;;;;;;4977791;28;19934;-82
2023/07/08 09:04:19;;;;;;;;;;;24.00;56.80;;;;;;4988891;28;19930;-83
2023/07/08 09:06:47;;;;;;;;;;;24.10;56.70;;;;;;4987406;28;20510;-84
2023/07/08 09:09:16;;;;;;;;;;;24.20;56.60;;;;;;4979733;28;19929;-84
2023/07/08 09:11:45;;;;;;;;;;;24.20;56.50;;;;;;4981623;28;20450;-84
2023/07/08 09:14:15;;;;;;;;;;;24.20;56.20;;;;;;4979653;28;19937;-86
2023/07/08 09:16:44;;;;;;;;;;;24.20;56.00;;;;;;4987400;28;20431;-85
2023/07/08 09:19:12;;;;;;;;;;;24.30;56.20;;;;;;5000102;28;19930;-84
2023/07/08 09:21:42;;;;;;;;;;;24.30;55.60;;;;;;5008214;28;19941;-84
2023/07/08 09:24:22;;;;;;;;;;;24.40;55.30;;;;;;4993299;28;19941;-83
2023/07/08 09:26:49;;;;;;;;;;;24.40;55.00;;;;;;4997750;28;20278;-84
2023/07/08 09:29:16;;;;;;;;;;;24.50;54.80;;;;;;5005224;28;19957;-82
2023/07/08 09:31:42;;;;;;;;;;;24.50;54.20;;;;;;5002245;28;19981;-84
2023/07/08 09:34:11;;;;;;;;;;;24.60;53.80;;;;;;5002662;28;19933;-83
2023/07/08 09:36:40;;;;;;;;;;;24.70;53.60;;;;;;5003391;28;19933;-83
2023/07/08 09:39:10;;;;;;;;;;;24.70;53.80;;;;;;5002323;28;20027;-84
2023/07/08 09:41:38;;;;;;;;;;;24.70;53.70;;;;;;5004519;28;20313;-84
2023/07/08 09:44:06;;;;;;;;;;;24.80;53.10;;;;;;5000528;28;19929;-83
2023/07/08 09:46:36;;;;;;;;;;;24.80;52.90;;;;;;4990561;28;19933;-85
2023/07/08 09:49:10;;;;;;;;;;;24.90;52.80;;;;;;4985861;28;19930;-84
2023/07/08 09:51:36;;;;;;;;;;;25.00;52.40;;;;;;4984599;28;19965;-82
2023/07/08 09:54:03;;;;;;;;;;;25.10;52.30;;;;;;4981608;28;19934;-82
2023/07/08 09:56:29;;;;;;;;;;;25.10;51.10;;;;;;4981314;28;19940;-80
2023/07/08 09:58:57;;;;;;;;;;;25.20;51.10;;;;;;4975604;28;19983;-82
2023/07/08 10:01:25;;;;;;;;;;;25.30;50.80;;;;;;4981291;28;19937;-80
2023/07/08 10:03:52;;;;;;;;;;;25.40;50.80;;;;;;4982929;28;19930;-82
2023/07/08 10:06:20;;;;;;;;;;;25.40;50.90;;;;;;4980578;28;20470;-81
2023/07/08 10:08:47;;;;;;;;;;;25.50;50.60;;;;;;4981313;28;20581;-82
2023/07/08 10:11:20;;;;;;;;;;;25.50;50.40;;;;;;4981944;28;19937;-83
2023/07/08 10:13:49;;;;;;;;;;;25.60;50.50;;;;;;4981730;28;19946;-82
2023/07/08 10:16:20;;;;;;;;;;;25.70;49.90;;;;;;4993715;28;19929;-82
2023/07/08 10:18:47;;;;;;;;;;;25.80;49.70;;;;;;5004006;28;19929;-81
2023/07/08 10:21:15;;;;;;;;;;;25.90;49.90;;;;;;5001341;28;19934;-82
2023/07/08 10:23:44;;;;;;;;;;;25.90;49.90;;;;;;5007223;28;19934;-82
2023/07/08 10:26:13;;;;;;;;;;;26.00;49.90;;;;;;4996525;28;20028;-82
2023/07/08 10:28:44;;;;;;;;;;;26.10;49.50;;;;;;4997715;28;20284;-81
2023/07/08 10:31:17;;;;;;;;;;;26.10;49.20;;;;;;4990594;28;20698;-82
2023/07/08 10:33:54;;;;;;;;;;;26.20;49.20;;;;;;4981154;28;19938;-81
2023/07/08 10:36:24;;;;;;;;;;;26.30;49.30;;;;;;4982144;28;20787;-83
2023/07/08 10:38:57;;;;;;;;;;;26.30;49.20;;;;;;4984918;28;19930;-82
2023/07/08 10:41:27;;;;;;;;;;;26.40;49.10;;;;;;4982247;28;19937;-81
2023/07/08 10:43:58;;;;;;;;;;;26.50;48.50;;;;;;4982994;28;20346;-82
2023/07/08 10:46:27;;;;;;;;;;;26.60;48.60;;;;;;4987114;28;19929;-80
2023/07/08 10:49:01;;;;;;;;;;;26.70;48.60;;;;;;4999674;28;19934;-81
2023/07/08 10:51:32;;;;;;;;;;;26.70;48.40;;;;;;4999179;28;19937;-81
2023/07/08 10:54:06;;;;;;;;;;;26.80;47.70;;;;;;4998638;28;20016;-80
2023/07/08 10:56:37;;;;;;;;;;;26.80;47.90;;;;;;4999172;28;19930;-82
2023/07/08 10:59:11;;;;;;;;;;;26.90;47.70;;;;;;5004232;28;20020;-82
2023/07/08 11:01:42;;;;;;;;;;;27.10;47.80;;;;;;4988907;28;20418;-83
2023/07/08 11:04:20;;;;;;;;;;;27.10;47.60;;;;;;4979686;28;19929;-82
2023/07/08 11:06:49;;;;;;;;;;;27.20;47.30;;;;;;4983702;28;19930;-82
2023/07/08 11:09:18;;;;;;;;;;;27.30;47.40;;;;;;4981580;28;19930;-83
2023/07/08 11:11:50;;;;;;;;;;;27.30;47.40;;;;;;4982970;28;20283;-82
2023/07/08 11:14:19;;;;;;;;;;;27.40;47.40;;;;;;4978804;28;19929;-83
2023/07/08 11:16:49;;;;;;;;;;;27.40;47.40;;;;;;4979216;28;19936;-81
2023/07/08 11:19:20;;;;;;;;;;;27.50;47.50;;;;;;4978687;28;19937;-84
2023/07/08 11:21:48;;;;;;;;;;;27.60;47.00;;;;;;4982044;28;19930;-83
2023/07/08 11:24:20;;;;;;;;;;;27.70;46.80;;;;;;4976110;28;20402;-81
2023/07/08 11:26:48;;;;;;;;;;;27.70;46.90;;;;;;4982468;28;19941;-83
2023/07/08 11:29:18;;;;;;;;;;;27.80;47.00;;;;;;4981159;28;19934;-81
2023/07/08 11:31:45;;;;;;;;;;;27.90;46.90;;;;;;4978448;28;19929;-83
2023/07/08 11:34:13;;;;;;;;;;;27.90;46.90;;;;;;4979356;28;20433;-82
2023/07/08 11:36:41;;;;;;;;;;;28.00;46.40;;;;;;4976873;28;19937;-83
2023/07/08 11:39:22;;;;;;;;;;;28.10;46.60;;;;;;4980541;28;20840;-82
2023/07/08 11:41:53;;;;;;;;;;;28.20;46.70;;;;;;4980246;28;19945;-83
2023/07/08 11:44:19;;;;;;;;;;;28.20;46.50;;;;;;4980053;28;20764;-82
2023/07/08 11:46:54;;;;;;;;;;;28.30;46.30;;;;;;4981078;28;20781;-82
2023/07/08 11:49:21;;;;;;;;;;;28.30;45.80;;;;;;4975044;28;20418;-82
2023/07/08 11:51:49;;;;;;;;;;;28.40;46.00;;;;;;4983557;28;19959;-82
2023/07/08 11:54:19;;;;;;;;;;;28.50;45.80;;;;;;4976309;28;20717;-83
2023/07/08 11:56:51;;;;;;;;;;;28.60;46.00;;;;;;4964604;28;19937;-83
2023/07/08 11:59:19;;;;;;;;;;;28.60;46.00;;;;;;4966067;28;20052;-83
2023/07/08 12:01:52;;;;;;;;;;;28.70;45.70;;;;;;4987009;28;19952;-82
2023/07/08 12:04:25;;;;;;;;;;;28.70;45.80;;;;;;4994576;28;19929;-83
2023/07/08 12:07:01;;;;;;;;;;;28.80;45.60;;;;;;4997581;28;20919;-83
2023/07/08 12:09:30;;;;;;;;;;;28.80;45.60;;;;;;5000716;28;19933;-84
2023/07/08 12:11:59;;;;;;;;;;;28.90;45.60;;;;;;4998274;28;19930;-83
2023/07/08 12:14:26;;;;;;;;;;;29.00;45.70;;;;;;4999658;28;19937;-85
2023/07/08 12:16:53;;;;;;;;;;;29.00;45.60;;;;;;4986687;28;20562;-85
2023/07/08 12:19:21;;;;;;;;;;;29.10;45.50;;;;;;4981088;28;20732;-84
2023/07/08 12:21:47;;;;;;;;;;;29.20;45.50;;;;;;4982987;28;19930;-84
2023/07/08 12:24:15;;;;;;;;;;;29.20;44.70;;;;;;4982815;28;19937;-83
2023/07/08 12:26:42;;;;;;;;;;;29.30;45.10;;;;;;4983751;28;19930;-83
2023/07/08 12:29:10;;;;;;;;;;;29.30;45.20;;;;;;4981009;28;19930;-84
2023/07/08 12:31:37;;;;;;;;;;;29.40;45.20;;;;;;4991130;28;20397;-84
2023/07/08 12:34:05;;;;;;;;;;;29.50;44.90;;;;;;4985460;28;20009;-83
2023/07/08 12:36:34;;;;;;;;;;;29.50;44.60;;;;;;4982345;28;19941;-84
2023/07/08 12:39:02;;;;;;;;;;;29.50;44.30;;;;;;4988397;28;19934;-83
2023/07/08 12:41:31;;;;;;;;;;;29.60;44.30;;;;;;4981689;28;20349;-84
2023/07/08 12:43:58;;;;;;;;;;;29.60;44.00;;;;;;4983418;28;19937;-83
2023/07/08 12:46:25;;;;;;;;;;;29.70;44.20;;;;;;4986833;28;19936;-84
2023/07/08 12:48:52;;;;;;;;;;;29.80;44.20;;;;;;4989395;28;19940;-84
2023/07/08 12:51:21;;;;;;;;;;;29.90;43.80;;;;;;4985972;28;19929;-84
2023/07/08 12:53:48;;;;;;;;;;;29.90;44.00;;;;;;4983966;28;19996;-83
2023/07/08 12:56:14;;;;;;;;;;;30.00;44.00;;;;;;4981853;28;19930;-85
2023/07/08 12:58:44;;;;;;;;;;;30.00;43.70;;;;;;4983691;28;19984;-84
2023/07/08 13:01:14;;;;;;;;;;;30.10;43.60;;;;;;4992642;28;19929;-83
2023/07/08 13:03:42;;;;;;;;;;;30.10;43.70;;;;;;5002452;28;19936;-84
2023/07/08 13:06:10;;;;;;;;;;;30.20;43.30;;;;;;5003165;28;19930;-84
2023/07/08 13:08:38;;;;;;;;;;;30.20;43.40;;;;;;4999691;28;19964;-83
2023/07/08 13:11:06;;;;;;;;;;;30.30;43.50;;;;;;5002520;28;20709;-84
2023/07/08 13:13:35;;;;;;;;;;;30.40;43.50;;;;;;5002132;28;19929;-84
2023/07/08 13:16:03;;;;;;;;;;;30.40;43.40;;;;;;5001124;28;19937;-83
2023/07/08 13:18:32;;;;;;;;;;;30.40;43.00;;;;;;5002653;28;20457;-83
2023/07/08 13:20:59;;;;;;;;;;;30.40;42.90;;;;;;5000568;28;19937;-84
2023/07/08 13:23:27;;;;;;;;;;;30.50;42.80;;;;;;4990690;28;19941;-84
2023/07/08 13:25:53;;;;;;;;;;;30.50;42.60;;;;;;4998200;28;19940;-84
2023/07/08 13:28:23;;;;;;;;;;;30.60;43.10;;;;;;5003676;28;19937;-84
2023/07/08 13:30:53;;;;;;;;;;;30.70;42.70;;;;;;4989657;28;19930;-84
2023/07/08 13:33:21;;;;;;;;;;;30.70;42.70;;;;;;4978845;28;20718;-84
2023/07/08 13:35:48;;;;;;;;;;;30.80;42.30;;;;;;4990048;28;20334;-84
2023/07/08 13:38:17;;;;;;;;;;;30.80;42.40;;;;;;4983487;28;19952;-84
2023/07/08 13:40:45;;;;;;;;;;;30.90;42.60;;;;;;4978662;28;20722;-83
2023/07/08 13:43:12;;;;;;;;;;;31.00;42.60;;;;;;4980543;28;19970;-85
2023/07/08 13:45:47;;;;;;;;;;;31.00;42.40;;;;;;4985691;28;19940;-84
2023/07/08 13:48:15;;;;;;;;;;;31.10;42.70;;;;;;4983543;28;19941;-80
2023/07/08 13:50:46;;;;;;;;;;;31.10;41.90;;;;;;4981595;28;20801;-82
2023/07/08 13:53:21;;;;;;;;;;;31.20;41.80;;;;;;4979212;28;19937;-82
2023/07/08 13:55:49;;;;;;;;;;;31.30;41.90;;;;;;4984113;28;19929;-82
2023/07/08 13:58:17;;;;;;;;;;;31.30;41.90;;;;;;4983348;28;19938;-82
2023/07/08 14:00:43;;;;;;;;;;;31.40;41.40;;;;;;4982363;28;19940;-82
2023/07/08 14:03:10;;;;;;;;;;;31.40;41.20;;;;;;5002826;28;19937;-82
2023/07/08 14:05:37;;;;;;;;;;;31.50;41.50;;;;;;5003093;28;19937;-81
2023/07/08 14:08:11;;;;;;;;;;;31.60;41.80;;;;;;5002471;28;19930;-81
2023/07/08 14:10:37;;;;;;;;;;;31.60;41.50;;;;;;4998694;28;19940;-81
2023/07/08 14:13:04;;;;;;;;;;;31.60;41.30;;;;;;5002363;28;19929;-82
2023/07/08 14:15:32;;;;;;;;;;;31.80;41.30;;;;;;4996406;28;19940;-82
2023/07/08 14:17:58;;;;;;;;;;;31.80;41.20;;;;;;4993382;28;19933;-81
2023/07/08 14:20:27;;;;;;;;;;;31.90;41.20;;;;;;4998456;28;19929;-82